Flight Track Log - Related Links

Times and Time Zones

All times are in EDT time to prevent confusion due to time zone crossing. See the DAL2025 flight status page for this flight to view local times or setup timezone preferences in your user account.

Time Position Orientation Groundspeed Altitude Reporting Facility
EDT Latitude Longitude Course Direction KTS MPH feet Rate Location/Type
Sat 08:55:25 AM 33.6333 -84.3500 53° Northeast 222 255 3,700  Level Atlanta TRACON
Sat 08:56:25 AM 33.6333 -84.2667 90° East 273 314 6,900 2,623 Climbing Atlanta TRACON
Sat 08:57:00 AM 33.7294 -84.0122 54° Northeast  Level FlightAware Approximate
Sat 08:57:56 AM 33.6356 -84.1161 89° East 304 350 10,300  Level Atlanta Center
Sat 08:58:00 AM 33.7980 -83.8979 54° Northeast  Level FlightAware Approximate
Sat 08:58:56 AM 33.6919 -84.0264 53° Northeast 316 364 12,000  Level Atlanta Center
Sat 08:59:00 AM 33.8666 -83.7835 54° Northeast  Level FlightAware Approximate
Sat 08:59:56 AM 33.7650 -83.9314 47° Northeast 352 405 13,700  Level Atlanta Center
Sat 09:00:00 AM 33.9422 -83.6758 53° Northeast  Level FlightAware Approximate
Sat 09:00:56 AM 33.8419 -83.8311 47° Northeast 390 449 15,800  Level Atlanta Center
Sat 09:01:56 AM 33.9211 -83.7258 48° Northeast 411 473 17,800 1,950 Climbing Atlanta Center
Sat 09:02:56 AM 33.9958 -83.6103 52° Northeast 425 489 19,700 1,850 Climbing Atlanta Center
Sat 09:03:56 AM 34.0706 -83.4897 53° Northeast 438 504 21,500 1,750 Climbing Atlanta Center
Sat 09:04:56 AM 34.1453 -83.3686 53° Northeast 449 517 23,200 1,450 Climbing Atlanta Center
Sat 09:05:56 AM 34.2236 -83.2425 53° Northeast 455 524 24,400 1,650 Climbing Atlanta Center
Sat 09:06:56 AM 34.3042 -83.1183 52° Northeast 462 532 26,500 1,850 Climbing Atlanta Center
Sat 09:07:56 AM 34.3806 -82.9967 53° Northeast 457 526 28,100 1,600 Climbing Atlanta Center
Sat 09:08:56 AM 34.4567 -82.8725 53° Northeast 458 527 29,700 1,550 Climbing Atlanta Center
Sat 09:09:56 AM 34.5222 -82.7656 53° Northeast 458 527 31,200 1,600 Climbing Atlanta Center
Sat 09:10:56 AM 34.5939 -82.6433 55° Northeast 451 519 32,900 900 Climbing Atlanta Center
Sat 09:11:56 AM 34.6678 -82.5311 51° Northeast 438 504 33,000 50 Climbing Atlanta Center
Sat 09:12:56 AM 34.7414 -82.4108 53° Northeast 438 504 33,000  Level Atlanta Center
Sat 09:13:56 AM 34.8128 -82.2906 54° Northeast 443 510 33,000  Level Atlanta Center
Sat 09:14:56 AM 34.8883 -82.1700 53° Northeast 443 510 33,000  Level Atlanta Center
Sat 09:15:56 AM 34.9614 -82.0542 52° Northeast 436 502 33,000  Level Atlanta Center
Sat 09:16:56 AM 35.0325 -81.9308 55° Northeast 436 502 33,000  Level Atlanta Center
Sat 09:17:56 AM 35.1011 -81.8047 56° Northeast 441 507 33,000  Level Atlanta Center
Sat 09:18:56 AM 35.1656 -81.6811 57° Northeast 442 509 33,000  Level Atlanta Center
Sat 09:19:56 AM 35.2319 -81.5519 58° Northeast 442 509 33,000  Level Atlanta Center
Sat 09:20:56 AM 35.3042 -81.4150 57° Northeast 437 503 33,000  Level Atlanta Center
Sat 09:21:56 AM 35.3683 -81.2881 58° Northeast 437 503 33,000  Level Atlanta Center
Sat 09:22:56 AM 35.4322 -81.1636 58° Northeast 437 503 33,000  Level Atlanta Center
Sat 09:23:56 AM 35.4981 -81.0389 57° Northeast 437 503 33,000  Level Atlanta Center
Sat 09:24:56 AM 35.5636 -80.9139 57° Northeast 437 503 33,000  Level Atlanta Center
Sat 09:25:56 AM 35.6272 -80.7864 58° Northeast 437 503 33,000  Level Atlanta Center
Sat 09:26:56 AM 35.6928 -80.6636 57° Northeast 432 497 33,000  Level Atlanta Center
Sat 09:27:56 AM 35.7561 -80.5406 58° Northeast 426 490 33,000  Level Atlanta Center
Sat 09:28:56 AM 35.8211 -80.4150 57° Northeast 426 490 33,000  Level Atlanta Center
Sat 09:31:14 AM 35.9547 -80.1442 59° Northeast 420 483 33,000  Level Washington Center
Sat 09:32:12 AM 36.0217 -80.0247 55° Northeast 413 475 33,000  Level Washington Center
Sat 09:33:13 AM 36.0847 -79.9047 57° Northeast 413 475 33,000  Level Washington Center
Sat 09:34:13 AM 36.1603 -79.7700 55° Northeast 426 490 33,000  Level Washington Center
Sat 09:35:14 AM 36.2247 -79.6550 55° Northeast 426 490 33,000  Level Washington Center
Sat 09:36:12 AM 36.2936 -79.5322 55° Northeast 421 484 33,000  Level Washington Center
Sat 09:37:13 AM 36.3533 -79.4297 54° Northeast 416 479 33,000  Level Washington Center
Sat 09:38:14 AM 36.4175 -79.3089 57° Northeast 411 473 33,000  Level Washington Center
Sat 09:39:12 AM 36.4883 -79.1831 55° Northeast 406 467 33,000  Level Washington Center
Sat 09:40:13 AM 36.5494 -79.0850 52° Northeast 406 467 33,000  Level Washington Center
Sat 09:41:13 AM 36.6133 -78.9714 55° Northeast 401 461 33,000  Level Washington Center
Sat 09:42:14 AM 36.6817 -78.8372 58° Northeast 401 461 33,000  Level Washington Center
Sat 09:43:12 AM 36.7408 -78.7308 55° Northeast 411 473 33,000 -303 Level Washington Center
Sat 09:44:13 AM 36.8064 -78.6142 55° Northeast 411 473 32,400 -1,377 Descending Washington Center
Sat 09:45:14 AM 36.8742 -78.4922 55° Northeast 411 473 30,200 -2,118 Descending Washington Center
Sat 09:46:12 AM 36.9528 -78.3469 56° Northeast 437 503 28,200 -1,513 Descending Washington Center
Sat 09:47:13 AM 37.0225 -78.2167 56° Northeast 450 518 27,200 -595 Descending Washington Center
Sat 09:48:13 AM 37.0831 -78.1069 55° Northeast 450 518 27,000 -198 Descending Washington Center
Sat 09:49:14 AM 37.1586 -77.9842 52° Northeast 445 512 26,800 -403 Descending Washington Center
Sat 09:50:12 AM 37.2603 -77.9064 31° Northeast 414 476 26,200 -800 Descending Washington Center
Sat 09:51:14 AM 37.3639 -77.8392 27° Northeast 414 476 25,200 -934 Descending Washington Center
Sat 09:52:14 AM 37.4653 -77.7689 29° Northeast 414 476 24,300 -814 Descending Washington Center
Sat 09:53:12 AM 37.5644 -77.7036 28° Northeast 409 471 23,600 -655 Descending Washington Center
Sat 09:54:13 AM 37.6636 -77.6356 29° Northeast 404 465 23,000 -298 Descending Washington Center
Sat 09:55:13 AM 37.7608 -77.5644 30° Northeast 398 458 23,000  Level Washington Center
Sat 09:56:14 AM 37.8600 -77.4986 28° Northeast 398 458 23,000  Level Washington Center
Sat 09:57:12 AM 37.9589 -77.4275 30° Northeast 398 458 23,000 -252 Level Washington Center
Sat 09:58:13 AM 38.0664 -77.3561 28° Northeast 398 458 22,500 -1,574 Descending Washington Center
Sat 09:59:14 AM 38.1633 -77.2897 28° Northeast 398 458 19,800 -2,420 Descending Washington Center
Sat 10:00:12 AM 38.2561 -77.2231 29° Northeast 398 458 17,700 -2,237 Descending Washington Center
Sat 10:01:12 AM 38.3464 -77.1589 29° Northeast 387 445 15,400 -1,975 Descending Washington Center
Sat 10:02:50 AM 38.4667 -77.0333 39° Northeast 362 417 12,500 -1,488 Descending Potomac TRACON
Sat 10:03:13 AM 38.5008 -76.9950 41° Northeast 362 417 12,400 -1,071 Descending Washington Center
Sat 10:04:14 AM 38.5725 -76.9089 43° Northeast 352 405 11,000 -1,160 Descending Washington Center
Sat 10:05:12 AM 38.6403 -76.8275 43° Northeast 339 390 10,100 -1,017 Descending Washington Center
Sat 10:06:12 AM 38.6950 -76.7539 46° Northeast 308 354 9,000 -1,041 Descending Washington Center
Sat 10:07:13 AM 38.7397 -76.6669 57° Northeast 295 339 8,000 -1,333 Descending Washington Center
Sat 10:07:51 AM 38.7667 -76.6000 63° Northeast 295 339 6,800 -1,224 Descending Potomac TRACON
Sat 10:08:51 AM 38.8167 -76.5333 46° Northeast 286 329 6,000 -950 Descending Potomac TRACON
Sat 10:09:51 AM 38.8833 -76.5500 349° North 260 299 4,900 -1,050 Descending Potomac TRACON
Sat 10:10:51 AM 38.9667 -76.5667 351° North 259 298 3,900 -1,000 Descending Potomac TRACON
Sat 10:11:51 AM 39.0333 -76.5833 349° North 230 265 2,900 -1,000 Descending Potomac TRACON

Login

Don't have an account? Register now (free) for customized features, flight alerts, and more!